createdAt,value
2024-03-29T00:01:45.117Z,8.6
2024-03-29T00:04:32.465Z,8.6
2024-03-29T00:07:20.070Z,8.6
2024-03-29T00:10:07.561Z,8.5
2024-03-29T00:12:55.279Z,8.5
2024-03-29T00:15:42.841Z,8.5
2024-03-29T00:18:32.270Z,8.4
2024-03-29T00:21:19.799Z,8.4
2024-03-29T00:24:07.120Z,8.4
2024-03-29T00:26:54.544Z,8.4
2024-03-29T00:29:41.838Z,8.4
2024-03-29T00:32:31.775Z,8.4
2024-03-29T00:35:19.115Z,8.4
2024-03-29T00:38:08.231Z,8.3
2024-03-29T00:40:55.626Z,8.3
2024-03-29T00:43:43.008Z,8.3
2024-03-29T00:46:30.231Z,8.2
2024-03-29T00:49:17.744Z,8.2
2024-03-29T00:52:05.097Z,8.1
2024-03-29T00:54:52.835Z,8.1
2024-03-29T00:57:40.158Z,8.1
2024-03-29T01:00:27.548Z,8.1
2024-03-29T01:03:14.908Z,8.1
2024-03-29T01:06:02.535Z,8.1
2024-03-29T01:08:50.279Z,8
2024-03-29T01:11:37.623Z,8
2024-03-29T01:14:25.656Z,8
2024-03-29T01:17:13.352Z,8.1
2024-03-29T01:20:00.724Z,8.1
2024-03-29T01:22:49.194Z,8.1
2024-03-29T01:25:36.522Z,8.1
2024-03-29T01:28:23.766Z,8.2
2024-03-29T01:31:11.030Z,8.2
2024-03-29T01:33:58.350Z,8.2
2024-03-29T01:36:48.381Z,8.2
2024-03-29T01:39:36.273Z,8.3
2024-03-29T01:42:23.598Z,8.3
2024-03-29T01:45:12.074Z,8.3
2024-03-29T01:47:59.431Z,8.3
2024-03-29T01:50:46.918Z,8.4
2024-03-29T01:53:34.968Z,8.4
2024-03-29T01:56:23.204Z,8.4
2024-03-29T01:59:11.525Z,8.5
2024-03-29T02:02:01.947Z,8.5
2024-03-29T02:04:49.471Z,8.4
2024-03-29T02:07:37.563Z,8.4
2024-03-29T02:10:25.042Z,8.4
2024-03-29T02:13:12.490Z,8.3
2024-03-29T02:16:00.153Z,8.2
2024-03-29T02:18:47.553Z,8.1
2024-03-29T02:21:35.122Z,8
2024-03-29T02:24:26.578Z,7.9
2024-03-29T02:27:13.984Z,7.8
2024-03-29T02:30:02.441Z,7.7
2024-03-29T02:32:52.169Z,7.6
2024-03-29T02:35:40.449Z,7.6
2024-03-29T02:38:27.957Z,7.6
2024-03-29T02:41:15.497Z,7.6
2024-03-29T02:44:02.760Z,7.5
2024-03-29T02:46:50.180Z,7.5
2024-03-29T02:49:37.737Z,7.5
2024-03-29T02:52:25.196Z,7.4
2024-03-29T02:55:12.630Z,7.4
2024-03-29T02:58:00.366Z,7.3
2024-03-29T03:00:47.701Z,7.3
2024-03-29T03:03:35.185Z,7.2
2024-03-29T03:06:23.613Z,7.2
2024-03-29T03:09:10.824Z,7.2
2024-03-29T03:12:29.804Z,7.1
2024-03-29T03:15:17.451Z,7.1
2024-03-29T03:18:04.888Z,7.1
2024-03-29T03:20:52.431Z,7.2
2024-03-29T03:23:41.511Z,7.2
2024-03-29T03:26:28.766Z,7.1
2024-03-29T03:29:16.099Z,7.1
2024-03-29T03:32:03.303Z,7.1
2024-03-29T03:34:51.979Z,7.1
2024-03-29T03:37:39.274Z,7.1
2024-03-29T03:40:26.567Z,7.1
2024-03-29T03:43:13.848Z,7.1
2024-03-29T03:46:01.907Z,7.1
2024-03-29T03:48:49.600Z,7.1
2024-03-29T03:51:36.884Z,7
2024-03-29T03:54:24.410Z,7
2024-03-29T03:57:11.684Z,7
2024-03-29T03:59:59.020Z,6.9
2024-03-29T04:02:46.331Z,6.9
2024-03-29T04:05:34.806Z,6.9
2024-03-29T04:08:23.668Z,6.8
2024-03-29T04:11:11.018Z,6.8
2024-03-29T04:13:58.388Z,6.8
2024-03-29T04:16:45.985Z,6.7
2024-03-29T04:19:33.671Z,6.8
2024-03-29T04:22:22.057Z,6.8
2024-03-29T04:25:09.368Z,6.8
2024-03-29T04:27:56.988Z,6.7
2024-03-29T04:30:44.976Z,6.7
2024-03-29T04:33:37.624Z,6.7
2024-03-29T04:36:25.041Z,6.7
2024-03-29T04:39:12.393Z,6.7
2024-03-29T04:41:59.823Z,6.6
2024-03-29T04:44:47.237Z,6.6
2024-03-29T04:47:34.716Z,6.6
2024-03-29T04:50:23.003Z,6.5
2024-03-29T04:53:10.496Z,6.6
2024-03-29T04:55:57.964Z,6.6
2024-03-29T04:58:45.425Z,6.5
2024-03-29T05:01:32.708Z,6.6
2024-03-29T05:04:21.033Z,6.6
2024-03-29T05:07:10.947Z,6.6
2024-03-29T05:09:58.302Z,6.6
2024-03-29T05:12:45.847Z,6.6
2024-03-29T05:15:33.153Z,6.6
2024-03-29T05:18:20.654Z,6.6
2024-03-29T05:21:08.350Z,6.6
2024-03-29T05:23:55.791Z,6.6
2024-03-29T05:26:43.103Z,6.6
2024-03-29T05:29:30.778Z,6.6
2024-03-29T05:32:18.150Z,6.6
2024-03-29T05:35:05.456Z,6.7
2024-03-29T05:37:54.471Z,6.7
2024-03-29T05:40:41.892Z,6.7
2024-03-29T05:43:29.212Z,6.8
2024-03-29T05:46:16.746Z,6.8
2024-03-29T05:49:04.334Z,6.9
2024-03-29T05:51:51.688Z,6.9
2024-03-29T05:54:39.024Z,7
2024-03-29T05:57:26.497Z,7.1
2024-03-29T06:00:16.548Z,7.1
2024-03-29T06:03:04.045Z,7.3
2024-03-29T06:05:52.014Z,7.4
2024-03-29T06:08:39.394Z,7.4
2024-03-29T06:11:26.682Z,7.5
2024-03-29T06:14:14.068Z,7.6
2024-03-29T06:17:33.251Z,7.7
2024-03-29T06:20:22.733Z,7.8
2024-03-29T06:23:10.244Z,7.9
2024-03-29T06:25:57.638Z,7.9
2024-03-29T06:28:45.210Z,8
2024-03-29T06:31:32.527Z,8
2024-03-29T06:34:19.867Z,8.1
2024-03-29T06:37:07.456Z,8.2
2024-03-29T06:39:54.757Z,8.3
2024-03-29T06:42:42.187Z,8.4
2024-03-29T06:45:29.601Z,8.4
2024-03-29T06:48:17.016Z,8.5
2024-03-29T06:51:04.631Z,8.5
2024-03-29T06:53:52.131Z,8.6
2024-03-29T06:56:39.571Z,8.7
2024-03-29T06:59:26.904Z,8.8
2024-03-29T07:02:14.828Z,8.9
2024-03-29T07:05:02.671Z,9
2024-03-29T07:07:53.189Z,9.1
2024-03-29T07:10:41.704Z,9.2
2024-03-29T07:13:29.078Z,9.3
2024-03-29T07:16:17.050Z,9.4
2024-03-29T07:19:04.328Z,9.5
2024-03-29T07:21:51.701Z,9.6
2024-03-29T07:24:39.648Z,9.6
2024-03-29T07:27:27.029Z,9.7
2024-03-29T07:30:18.378Z,9.8
2024-03-29T07:33:06.284Z,9.9
2024-03-29T07:35:55.186Z,9.9
2024-03-29T07:38:43.264Z,10
2024-03-29T07:41:30.889Z,10.1
2024-03-29T07:44:18.244Z,10.1
2024-03-29T07:47:05.507Z,10.2
2024-03-29T07:49:52.834Z,10.2
2024-03-29T07:52:40.261Z,10.3
2024-03-29T07:55:27.535Z,10.3
2024-03-29T07:58:14.709Z,10.5
2024-03-29T08:01:02.705Z,10.6
2024-03-29T08:03:50.341Z,10.6
2024-03-29T08:06:39.210Z,10.8
2024-03-29T08:09:26.967Z,10.9
2024-03-29T08:12:14.304Z,11
2024-03-29T08:15:01.739Z,11.1
2024-03-29T08:17:49.484Z,11.2
2024-03-29T08:20:36.837Z,11.3
2024-03-29T08:23:24.194Z,11.4
2024-03-29T08:26:11.682Z,11.5
2024-03-29T08:28:59.078Z,11.6
2024-03-29T08:31:46.755Z,11.6
2024-03-29T08:34:34.494Z,11.8
2024-03-29T08:37:22.990Z,11.9
2024-03-29T08:40:10.354Z,12.1
2024-03-29T08:42:58.016Z,12.3
2024-03-29T08:45:45.693Z,12.4
2024-03-29T08:48:33.717Z,12.5
2024-03-29T08:51:23.270Z,12.6
2024-03-29T08:54:10.942Z,12.7
2024-03-29T08:56:58.536Z,12.8
2024-03-29T08:59:47.008Z,12.8
2024-03-29T09:02:34.376Z,12.9
2024-03-29T09:05:22.575Z,13
2024-03-29T09:08:10.786Z,13.1
2024-03-29T09:10:58.125Z,13.2
2024-03-29T09:13:46.776Z,13.4
2024-03-29T09:16:34.194Z,13.5
2024-03-29T09:19:23.129Z,13.6
2024-03-29T09:22:10.693Z,13.6
2024-03-29T09:24:58.061Z,13.7
2024-03-29T09:27:45.864Z,13.8
2024-03-29T09:30:34.294Z,13.9
2024-03-29T09:33:22.585Z,14
2024-03-29T09:36:10.326Z,14.1
2024-03-29T09:38:57.726Z,14.3
2024-03-29T09:41:45.094Z,14.4
2024-03-29T09:44:32.573Z,14.5
2024-03-29T09:47:21.944Z,14.5
2024-03-29T09:50:11.693Z,14.7
2024-03-29T09:52:59.370Z,14.7
2024-03-29T09:55:47.255Z,14.7
2024-03-29T09:58:35.519Z,14.9
2024-03-29T10:01:24.116Z,15
2024-03-29T10:04:11.847Z,15
2024-03-29T10:07:01.083Z,15.1
2024-03-29T10:09:50.134Z,15.2
2024-03-29T10:12:40.440Z,15.3
2024-03-29T10:15:28.985Z,15.6
2024-03-29T10:18:25.367Z,15.7
2024-03-29T10:21:16.046Z,15.8
2024-03-29T10:24:03.515Z,15.9
2024-03-29T10:26:58.501Z,15.9
2024-03-29T10:29:48.444Z,16
2024-03-29T10:32:38.647Z,16.1
2024-03-29T10:35:26.309Z,16.1
2024-03-29T10:38:13.844Z,16.2
2024-03-29T10:41:01.271Z,16.2
2024-03-29T10:43:51.785Z,16.3
2024-03-29T10:46:42.177Z,16.1
2024-03-29T10:49:33.596Z,16.4
2024-03-29T10:52:22.367Z,16.6
2024-03-29T10:55:11.486Z,16.7
2024-03-29T10:57:59.527Z,16.8
2024-03-29T11:00:47.857Z,17.1
2024-03-29T11:03:39.409Z,17.1
2024-03-29T11:06:34.420Z,17.3
2024-03-29T11:09:26.294Z,17.4
2024-03-29T11:12:17.396Z,17.7
2024-03-29T11:15:07.613Z,17.8
2024-03-29T11:18:02.459Z,17.9
2024-03-29T11:20:50.917Z,17.9
2024-03-29T11:23:39.420Z,17.9
2024-03-29T11:26:26.857Z,18.2
2024-03-29T11:29:14.951Z,17.8
2024-03-29T11:32:05.956Z,18
2024-03-29T11:34:53.421Z,18.5
2024-03-29T11:37:41.781Z,18.6
2024-03-29T11:40:29.253Z,18.4
2024-03-29T11:43:17.051Z,18.1
2024-03-29T11:46:04.466Z,17.9
2024-03-29T11:48:55.808Z,17.9
2024-03-29T11:51:43.423Z,18.1
2024-03-29T11:54:33.504Z,18.1
2024-03-29T11:57:25.206Z,18.1
2024-03-29T12:00:12.715Z,18.3
2024-03-29T12:03:00.456Z,18.5
2024-03-29T12:05:49.114Z,18.3
2024-03-29T12:08:40.062Z,18.2
2024-03-29T12:11:28.668Z,18.1
2024-03-29T12:14:17.966Z,18
2024-03-29T12:17:08.145Z,17.9
2024-03-29T12:19:56.806Z,17.8
2024-03-29T12:22:49.783Z,17.8
2024-03-29T12:25:37.696Z,18
2024-03-29T12:28:25.757Z,18.1
2024-03-29T12:31:14.954Z,18.4
2024-03-29T12:34:04.837Z,18.6
2024-03-29T12:36:53.722Z,18.8
2024-03-29T12:39:43.714Z,18.9
2024-03-29T12:42:31.988Z,18.8
2024-03-29T12:45:19.662Z,18.8
2024-03-29T12:48:08.710Z,18.8
2024-03-29T12:50:58.076Z,18.8
2024-03-29T12:53:46.584Z,18.8
2024-03-29T12:56:34.630Z,18.8
2024-03-29T12:59:26.340Z,18.7
2024-03-29T13:02:15.083Z,18.7
2024-03-29T13:05:02.561Z,18.7
2024-03-29T13:07:51.101Z,18.9
2024-03-29T13:10:40.142Z,19
2024-03-29T13:13:28.476Z,19.1
2024-03-29T13:16:16.146Z,19.2
2024-03-29T13:19:03.759Z,19.1
2024-03-29T13:21:51.407Z,19.2
2024-03-29T13:24:39.159Z,19.1
2024-03-29T13:27:26.721Z,19
2024-03-29T13:30:14.375Z,18.9
2024-03-29T13:33:01.863Z,18.7
2024-03-29T13:35:50.178Z,18.4
2024-03-29T13:38:51.880Z,18.2
2024-03-29T13:41:46.423Z,18.1
2024-03-29T13:44:34.159Z,17.9
2024-03-29T13:47:22.417Z,17.8
2024-03-29T13:50:10.211Z,17.7
2024-03-29T13:53:00.818Z,17.5
2024-03-29T13:55:49.764Z,17.4
2024-03-29T13:58:37.703Z,17.4
2024-03-29T14:01:25.225Z,17.3
2024-03-29T14:04:13.549Z,17.3
2024-03-29T14:07:01.246Z,17.2
2024-03-29T14:09:52.616Z,17.2
2024-03-29T14:12:40.218Z,17.1
2024-03-29T14:15:27.784Z,17.1
2024-03-29T14:18:15.378Z,17.2
2024-03-29T14:21:02.849Z,17.4
2024-03-29T14:23:50.932Z,17.8
2024-03-29T14:26:40.170Z,18.1
2024-03-29T14:29:28.805Z,18.3
2024-03-29T14:32:16.394Z,18.5
2024-03-29T14:35:04.012Z,18.6
2024-03-29T14:37:52.905Z,18.7
2024-03-29T14:40:41.596Z,18.8
2024-03-29T14:43:29.142Z,18.9
2024-03-29T14:46:17.931Z,18.9
2024-03-29T14:49:06.568Z,18.8
2024-03-29T14:51:56.817Z,18.7
2024-03-29T14:54:44.295Z,18.6
2024-03-29T14:57:32.070Z,18.5
2024-03-29T15:00:20.504Z,18.5
2024-03-29T15:03:10.136Z,18.3
2024-03-29T15:05:57.830Z,18.4
2024-03-29T15:08:45.455Z,18.4
2024-03-29T15:11:32.922Z,18.4
2024-03-29T15:14:21.014Z,18.2
2024-03-29T15:17:08.565Z,18.1
2024-03-29T15:19:56.096Z,18
2024-03-29T15:22:43.781Z,18.1
2024-03-29T15:25:33.434Z,18
2024-03-29T15:28:21.284Z,18
2024-03-29T15:31:41.916Z,18
2024-03-29T15:34:29.431Z,17.9
2024-03-29T15:37:17.089Z,17.9
2024-03-29T15:40:05.557Z,17.8
2024-03-29T15:42:56.004Z,17.8
2024-03-29T15:45:43.279Z,17.7
2024-03-29T15:48:30.737Z,17.6
2024-03-29T15:51:18.374Z,17.6
2024-03-29T15:54:05.822Z,17.6
2024-03-29T15:56:57.027Z,17.6
2024-03-29T15:59:45.745Z,17.5
2024-03-29T16:02:33.542Z,17.4
2024-03-29T16:05:32.798Z,17.4
2024-03-29T16:08:20.126Z,17.3
2024-03-29T16:11:09.542Z,17.2
2024-03-29T16:13:57.067Z,17.1
2024-03-29T16:16:44.485Z,17.1
2024-03-29T16:19:31.887Z,17.1
2024-03-29T16:22:19.311Z,17
2024-03-29T16:25:07.266Z,17.1
2024-03-29T16:27:54.837Z,17.2
2024-03-29T16:30:42.216Z,17.4
2024-03-29T16:33:30.703Z,17.5
2024-03-29T16:36:19.964Z,17.5
2024-03-29T16:39:07.460Z,17.5
2024-03-29T16:41:54.953Z,17.3
2024-03-29T16:44:44.161Z,17.2
2024-03-29T16:47:31.532Z,17.1
2024-03-29T16:50:19.763Z,16.9
2024-03-29T16:53:07.090Z,16.8
2024-03-29T16:55:54.706Z,16.7
2024-03-29T16:58:42.062Z,16.6
2024-03-29T17:01:29.487Z,16.5
2024-03-29T17:04:16.886Z,16.4
2024-03-29T17:07:04.311Z,16.4
2024-03-29T17:09:51.848Z,16.3
2024-03-29T17:12:39.597Z,16.2
2024-03-29T17:15:27.327Z,16.2
2024-03-29T17:18:14.787Z,16.1
2024-03-29T17:21:02.154Z,16.1
2024-03-29T17:23:49.881Z,16
2024-03-29T17:26:38.551Z,16
2024-03-29T17:29:26.112Z,15.9
2024-03-29T17:32:14.686Z,15.8
2024-03-29T17:35:02.119Z,15.8
2024-03-29T17:37:50.745Z,15.7
2024-03-29T17:40:38.022Z,15.7
2024-03-29T17:43:25.682Z,15.7
2024-03-29T17:46:13.166Z,15.7
2024-03-29T17:49:00.660Z,15.7
2024-03-29T17:51:48.753Z,15.7
2024-03-29T17:54:36.362Z,15.6
2024-03-29T17:57:24.012Z,15.5
2024-03-29T18:00:11.679Z,15.5
2024-03-29T18:03:02.567Z,15.4
2024-03-29T18:05:51.254Z,15.4
2024-03-29T18:08:39.138Z,15.4
2024-03-29T18:11:27.148Z,15.4
2024-03-29T18:14:14.673Z,15.4
2024-03-29T18:17:02.551Z,15.4
2024-03-29T18:19:50.251Z,15.3
2024-03-29T18:22:37.649Z,15.3
2024-03-29T18:25:24.947Z,15.3
2024-03-29T18:28:12.502Z,15.3
2024-03-29T18:31:00.052Z,15.3
2024-03-29T18:33:52.352Z,15.3
2024-03-29T18:36:39.755Z,15.3
2024-03-29T18:39:27.256Z,15.3
2024-03-29T18:42:14.571Z,15.1
2024-03-29T18:45:02.121Z,15.1
2024-03-29T18:47:50.568Z,15
2024-03-29T18:50:39.057Z,15
2024-03-29T18:53:26.536Z,15
2024-03-29T18:56:13.925Z,15
2024-03-29T18:59:02.731Z,14.9
2024-03-29T19:01:50.197Z,14.9
2024-03-29T19:04:37.801Z,14.8
2024-03-29T19:07:27.048Z,14.8
2024-03-29T19:10:14.571Z,14.7
2024-03-29T19:13:02.182Z,14.6
2024-03-29T19:15:50.215Z,14.6
2024-03-29T19:18:37.604Z,14.5
2024-03-29T19:21:25.388Z,14.4
2024-03-29T19:24:12.760Z,14.4
2024-03-29T19:27:00.308Z,14.4
2024-03-29T19:29:48.201Z,14.3
2024-03-29T19:32:36.679Z,14.3
2024-03-29T19:35:24.504Z,14.3
2024-03-29T19:38:13.161Z,14.3
2024-03-29T19:41:02.392Z,14.3
2024-03-29T19:43:50.258Z,14.3
2024-03-29T19:46:40.188Z,14.3
2024-03-29T19:49:27.515Z,14.3
2024-03-29T19:52:14.863Z,14.3
2024-03-29T19:55:02.572Z,14.3
2024-03-29T19:57:50.805Z,14.3
2024-03-29T20:00:38.279Z,14.3
2024-03-29T20:03:25.840Z,14.3
2024-03-29T20:06:13.484Z,14.4
2024-03-29T20:09:00.837Z,14.4
2024-03-29T20:11:48.895Z,14.4
2024-03-29T20:14:36.706Z,14.4
2024-03-29T20:17:24.488Z,14.4
2024-03-29T20:20:11.903Z,14.5
2024-03-29T20:22:59.571Z,14.5
2024-03-29T20:25:49.007Z,14.5
2024-03-29T20:28:37.055Z,14.5
2024-03-29T20:31:24.900Z,14.5
2024-03-29T20:34:12.207Z,14.5
2024-03-29T20:36:59.860Z,14.5
2024-03-29T20:39:48.133Z,14.5
2024-03-29T20:42:35.563Z,14.5
2024-03-29T20:45:24.039Z,14.5
2024-03-29T20:48:11.682Z,14.4
2024-03-29T20:50:59.461Z,14.4
2024-03-29T20:53:47.248Z,14.4
2024-03-29T20:56:35.141Z,14.4
2024-03-29T20:59:24.674Z,14.4
2024-03-29T21:02:16.992Z,14.4
2024-03-29T21:05:36.748Z,14.4
2024-03-29T21:08:25.949Z,14.4
2024-03-29T21:11:13.269Z,14.4
2024-03-29T21:14:00.798Z,14.4
2024-03-29T21:16:48.179Z,14.4
2024-03-29T21:19:36.480Z,14.1
2024-03-29T21:22:24.508Z,14.4
2024-03-29T21:25:12.178Z,14.3
2024-03-29T21:28:00.184Z,14.4
2024-03-29T21:30:49.282Z,14.3
2024-03-29T21:33:38.134Z,14.3
2024-03-29T21:36:26.184Z,14.3
2024-03-29T21:39:13.530Z,14.2
2024-03-29T21:42:01.306Z,14.2
2024-03-29T21:44:52.048Z,14.1
2024-03-29T21:47:39.879Z,14.1
2024-03-29T21:50:27.557Z,14
2024-03-29T21:53:14.977Z,14
2024-03-29T21:56:02.495Z,14
2024-03-29T21:58:55.228Z,14
2024-03-29T22:01:43.093Z,14
2024-03-29T22:04:30.618Z,14
2024-03-29T22:07:19.283Z,14
2024-03-29T22:10:06.754Z,14
2024-03-29T22:12:54.742Z,14
2024-03-29T22:15:42.084Z,14
2024-03-29T22:18:29.667Z,14
2024-03-29T22:21:17.468Z,14
2024-03-29T22:24:04.805Z,14
2024-03-29T22:26:52.523Z,14
2024-03-29T22:29:39.915Z,14
2024-03-29T22:32:27.626Z,13.9
2024-03-29T22:35:15.060Z,13.9
2024-03-29T22:38:07.857Z,13.9
2024-03-29T22:40:55.244Z,13.8
2024-03-29T22:43:42.828Z,13.8
2024-03-29T22:46:30.229Z,13.8
2024-03-29T22:49:17.604Z,13.7
2024-03-29T22:52:05.475Z,13.7
2024-03-29T22:54:53.489Z,13.7
2024-03-29T22:57:41.021Z,13.7
2024-03-29T23:00:28.707Z,13.7
2024-03-29T23:03:16.619Z,13.6
2024-03-29T23:06:04.175Z,13.6
2024-03-29T23:08:51.739Z,13.6
2024-03-29T23:11:39.135Z,13.5
2024-03-29T23:14:27.041Z,13.5
2024-03-29T23:17:14.421Z,13.5
2024-03-29T23:20:01.670Z,13.4
2024-03-29T23:22:50.961Z,13.3
2024-03-29T23:25:43.187Z,13.2
2024-03-29T23:28:30.666Z,13.2
2024-03-29T23:31:18.648Z,13.2
2024-03-29T23:34:06.199Z,13.1
2024-03-29T23:36:53.511Z,13.1
2024-03-29T23:39:41.143Z,13.1
2024-03-29T23:42:28.513Z,13.1
2024-03-29T23:45:16.016Z,13.1
2024-03-29T23:48:04.413Z,13.1
2024-03-29T23:50:52.209Z,13.1
2024-03-29T23:53:40.760Z,13.1
2024-03-29T23:56:28.186Z,13.1
2024-03-29T23:59:15.504Z,13.1
